BISR weather

Stórikroppur Airport
Stórikroppur, Western Region, Iceland

Public forecast

Using degrees Celsius for public forecast. Weather courtesy of forecast.io.

Closest aviation weather report (METAR) to Stórikroppur Airport

Closest report is Reykjavik Airport, 32.5 nm (60.2 km) SSW. Retrieved 2020/06/06 23:00 UTC (1 hour ago):

BIRK 062300Z 34005KT 320V020 CAVOK 08/01 Q1017

Closest aviation forecast (TAF) to Stórikroppur Airport

Closest forecast is Reykjavik Airport, 32.5 nm (60.2 km) SSW. Retrieved 2020-06-07 00:22 UTC (0 seconds ago):

TAF BIRK 062219Z 0700/0800 VRB02KT CAVOK TX14/0712Z TN07/0704Z BECMG 0711/0713 19012KT 9999 SCT040 BECMG 0716/0718 -RA SCT020 BKN030 BECMG 0719/0721 13014KT